Time;durP1;ratioP1;P1;durP2;ratioP2;P2;SDS_P1;SDS_P2;PMS_P1;PMS_P2;Temp;Humidity;BMP_temperature;BMP_pressure;BME280_temperature;BME280_humidity;BME280_pressure;Samples;Min_cycle;Max_cycle;Signal;HPM_P1;HPM_P2
2021/09/25 00:00:31;;;;;;;14.15;10.48;;;;;;;10.68;100.00;96001.94;1026451;28;20034;-65
2021/09/25 00:01:01;;;;;;;13.95;10.88;;;;;;;10.71;100.00;96010.06;1022776;28;20023;-63
2021/09/25 00:01:32;;;;;;;11.95;10.48;;;;;;;10.73;100.00;96015.06;1020558;28;20337;-62
2021/09/25 00:02:02;;;;;;;13.32;11.43;;;;;;;10.69;100.00;96008.75;1013623;29;20044;-65
2021/09/25 00:02:33;;;;;;;16.35;11.27;;;;;;;10.66;100.00;96010.03;1022106;28;20034;-64
2021/09/25 00:03:04;;;;;;;13.68;10.70;;;;;;;10.65;100.00;96015.56;1023527;28;20103;-66
2021/09/25 00:03:35;;;;;;;13.38;10.90;;;;;;;10.61;100.00;96013.44;1027770;28;20027;-65
2021/09/25 00:04:05;;;;;;;13.63;11.85;;;;;;;10.60;100.00;96011.88;1028273;28;20270;-65
2021/09/25 00:04:36;;;;;;;15.27;11.02;;;;;;;10.59;100.00;96010.28;1034929;28;20037;-62
2021/09/25 00:05:07;;;;;;;15.15;11.02;;;;;;;10.59;100.00;96015.53;1039123;28;20553;-66
2021/09/25 00:05:38;;;;;;;13.23;10.57;;;;;;;10.59;100.00;96010.28;1031142;28;20452;-66
2021/09/25 00:06:09;;;;;;;14.45;10.75;;;;;;;10.60;100.00;96011.88;1029159;28;20372;-63
2021/09/25 00:06:39;;;;;;;15.68;11.07;;;;;;;10.57;100.00;96017.63;1025937;28;20269;-66
2021/09/25 00:07:10;;;;;;;14.27;11.10;;;;;;;10.58;100.00;96016.56;1019355;29;20442;-66
2021/09/25 00:07:40;;;;;;;12.98;11.32;;;;;;;10.59;100.00;96015.53;1019173;29;20027;-65
2021/09/25 00:08:11;;;;;;;19.25;10.93;;;;;;;10.60;100.00;96016.34;1022143;29;20689;-65
2021/09/25 00:08:41;;;;;;;12.77;10.68;;;;;;;10.51;100.00;96012.59;1017449;29;20036;-66
2021/09/25 00:09:12;;;;;;;17.42;11.57;;;;;;;10.49;100.00;96004.97;1022786;28;20035;-66
2021/09/25 00:09:43;;;;;;;13.93;11.18;;;;;;;10.54;100.00;96012.09;1023170;29;20023;-65
2021/09/25 00:10:15;;;;;;;12.88;11.48;;;;;;;10.52;100.00;96009.72;1022056;28;20035;-66
2021/09/25 00:10:46;;;;;;;12.43;10.27;;;;;;;10.53;100.00;96011.31;1026610;28;20328;-65
2021/09/25 00:11:16;;;;;;;13.90;10.93;;;;;;;10.49;100.00;96006.81;1027302;28;20342;-64
2021/09/25 00:11:47;;;;;;;13.00;10.65;;;;;;;10.49;100.00;96012.06;1035125;28;20033;-65
2021/09/25 00:12:17;;;;;;;12.93;10.88;;;;;;;10.50;100.00;96013.66;1033233;28;20476;-65
2021/09/25 00:12:48;;;;;;;14.60;11.30;;;;;;;10.50;100.00;96011.03;1025467;28;20038;-64
2021/09/25 00:13:18;;;;;;;14.30;10.82;;;;;;;10.46;100.00;96008.13;1031037;28;20034;-66
2021/09/25 00:13:49;;;;;;;14.52;11.50;;;;;;;10.46;100.00;96009.94;1027484;28;20490;-65
2021/09/25 00:14:19;;;;;;;12.68;10.95;;;;;;;10.46;100.00;96016.00;1028758;28;20022;-64
2021/09/25 00:14:50;;;;;;;15.88;11.73;;;;;;;10.44;100.00;96018.09;1037937;28;20033;-65
2021/09/25 00:15:21;;;;;;;13.50;10.55;;;;;;;10.44;100.00;96015.47;1034978;28;20065;-65
2021/09/25 00:15:51;;;;;;;14.57;11.82;;;;;;;10.41;100.00;96018.59;1024490;28;20032;-65
2021/09/25 00:16:25;;;;;;;13.93;11.05;;;;;;;10.35;100.00;96009.09;1024892;28;20572;-63
2021/09/25 00:16:56;;;;;;;15.25;11.20;;;;;;;10.38;100.00;96019.88;1022399;28;20234;-64
2021/09/25 00:17:26;;;;;;;13.52;11.00;;;;;;;10.36;100.00;96016.75;1023527;28;20298;-64
2021/09/25 00:17:58;;;;;;;14.18;11.75;;;;;;;10.34;100.00;96013.56;1027737;28;20497;-65
2021/09/25 00:18:28;;;;;;;14.05;11.70;;;;;;;10.35;100.00;96014.34;1022256;28;20525;-63
2021/09/25 00:18:59;;;;;;;14.55;12.00;;;;;;;10.37;100.00;96018.31;1017925;29;20263;-65
2021/09/25 00:19:30;;;;;;;13.95;11.40;;;;;;;10.37;100.00;96022.78;1018792;29;20027;-66
2021/09/25 00:20:00;;;;;;;13.65;11.57;;;;;;;10.40;100.00;96019.63;1023709;28;20701;-65
2021/09/25 00:20:31;;;;;;;17.27;12.35;;;;;;;10.32;100.00;96009.59;1030079;28;20034;-62
2021/09/25 00:21:03;;;;;;;16.73;11.98;;;;;;;10.31;100.00;96013.28;1028738;28;20038;-64
2021/09/25 00:21:33;;;;;;;14.32;12.10;;;;;;;10.29;100.00;96013.53;1030151;28;21454;-67
2021/09/25 00:22:04;;;;;;;13.73;11.65;;;;;;;10.24;100.00;96007.44;1031376;28;20300;-65
2021/09/25 00:22:35;;;;;;;14.70;11.43;;;;;;;10.27;100.00;96018.25;1022264;28;20587;-63
2021/09/25 00:23:05;;;;;;;14.25;11.70;;;;;;;10.25;100.00;96012.44;1025148;28;20019;-65
2021/09/25 00:23:35;;;;;;;15.82;11.88;;;;;;;10.23;100.00;96011.09;1030971;28;20026;-66
2021/09/25 00:24:07;;;;;;;14.45;12.07;;;;;;;10.23;100.00;96011.09;1027240;28;20069;-63
2021/09/25 00:24:38;;;;;;;14.95;12.00;;;;;;;10.14;100.00;96008.97;1030702;28;20193;-64
2021/09/25 00:25:08;;;;;;;14.05;11.82;;;;;;;10.14;100.00;96008.97;1024725;28;20258;-64
2021/09/25 00:25:39;;;;;;;17.17;12.38;;;;;;;10.14;100.00;96013.41;1022700;29;20850;-65
2021/09/25 00:26:09;;;;;;;16.77;12.63;;;;;;;10.15;100.00;96015.78;1023007;28;20027;-65
2021/09/25 00:26:40;;;;;;;14.60;11.65;;;;;;;10.15;100.00;96010.53;1027326;28;20031;-66
2021/09/25 00:27:10;;;;;;;15.32;11.70;;;;;;;10.16;100.00;96016.59;1024738;28;20105;-63
2021/09/25 00:27:41;;;;;;;14.95;11.43;;;;;;;10.19;100.00;96020.50;1024233;28;20023;-66
2021/09/25 00:28:11;;;;;;;14.02;11.52;;;;;;;10.17;100.00;96015.53;1027219;28;20038;-65
2021/09/25 00:28:42;;;;;;;15.32;11.77;;;;;;;10.16;100.00;96016.59;1027181;28;20039;-65
2021/09/25 00:29:12;;;;;;;13.82;10.93;;;;;;;10.17;100.00;96022.63;1024989;28;20034;-63
2021/09/25 00:29:42;;;;;;;15.60;12.25;;;;;;;10.13;100.00;96012.63;1026146;28;20858;-65
2021/09/25 00:30:13;;;;;;;13.80;11.23;;;;;;;10.12;100.00;96018.09;1031158;28;20511;-65
2021/09/25 00:30:44;;;;;;;13.48;11.30;;;;;;;10.07;100.00;96008.38;1033678;28;20033;-66
2021/09/25 00:31:14;;;;;;;19.23;11.73;;;;;;;10.12;100.00;96016.28;1027566;28;20030;-62
2021/09/25 00:31:45;;;;;;;14.07;11.38;;;;;;;10.15;100.00;96020.22;1026908;28;20496;-64
2021/09/25 00:32:16;;;;;;;13.98;12.02;;;;;;;10.17;100.00;96020.00;1027099;28;20121;-64
2021/09/25 00:32:46;;;;;;;15.02;11.48;;;;;;;10.19;100.00;96025.75;1027512;28;20263;-65
2021/09/25 00:33:17;;;;;;;15.60;12.00;;;;;;;10.16;100.00;96029.69;1029083;28;20030;-64
2021/09/25 00:33:47;;;;;;;15.52;11.20;;;;;;;10.16;100.00;96027.06;1025450;28;20031;-65
2021/09/25 00:34:18;;;;;;;14.70;11.75;;;;;;;10.17;100.00;96028.66;1030920;28;20022;-65
2021/09/25 00:34:48;;;;;;;14.27;11.20;;;;;;;10.11;100.00;96014.69;1023479;28;20031;-65
2021/09/25 00:35:19;;;;;;;13.93;10.93;;;;;;;10.17;100.00;96017.38;1021618;28;20023;-65
2021/09/25 00:35:49;;;;;;;14.02;11.63;;;;;;;10.23;100.00;96021.59;1017143;29;20150;-65
2021/09/25 00:36:19;;;;;;;13.63;10.90;;;;;;;10.25;100.00;96033.41;1020013;28;20173;-65
2021/09/25 00:36:50;;;;;;;13.18;11.77;;;;;;;10.24;100.00;96025.81;1019275;29;20107;-65
2021/09/25 00:37:20;;;;;;;14.55;12.00;;;;;;;10.23;100.00;96021.59;1018242;29;20090;-64
2021/09/25 00:37:51;;;;;;;14.93;11.48;;;;;;;10.25;100.00;96019.50;1021282;28;20374;-65
2021/09/25 00:38:21;;;;;;;15.52;11.93;;;;;;;10.24;100.00;96025.81;1030830;28;20026;-65
2021/09/25 00:38:52;;;;;;;13.00;11.30;;;;;;;10.22;100.00;96014.75;1035503;28;20022;-65
2021/09/25 00:39:22;;;;;;;17.08;11.55;;;;;;;10.22;100.00;96026.03;1037519;28;20095;-63
2021/09/25 00:39:53;;;;;;;12.90;10.80;;;;;;;10.21;100.00;96026.31;1034995;28;20437;-64
2021/09/25 00:40:23;;;;;;;16.40;12.00;;;;;;;10.22;100.00;96025.25;1039388;28;20093;-66
2021/09/25 00:40:53;;;;;;;14.20;11.50;;;;;;;10.21;100.00;96029.72;1035168;28;20045;-64
2021/09/25 00:41:24;;;;;;;15.18;12.23;;;;;;;10.20;100.00;96027.34;1034616;28;20026;-64
2021/09/25 00:41:54;;;;;;;15.15;11.75;;;;;;;10.18;100.00;96035.47;1031183;28;20101;-66
2021/09/25 00:42:25;;;;;;;13.63;11.30;;;;;;;10.21;100.00;96029.72;1035304;28;20446;-65
2021/09/25 00:42:55;;;;;;;14.13;11.35;;;;;;;10.18;100.00;96029.44;1035222;28;20019;-65
2021/09/25 00:43:26;;;;;;;15.00;11.20;;;;;;;10.17;100.00;96028.66;1034968;28;20014;-65
2021/09/25 00:43:56;;;;;;;15.15;10.95;;;;;;;10.19;100.00;96029.16;1026998;28;20026;-65
2021/09/25 00:44:27;;;;;;;13.70;11.00;;;;;;;10.18;100.00;96030.22;1023437;28;20026;-65
2021/09/25 00:44:57;;;;;;;12.85;10.68;;;;;;;10.19;100.00;96031.00;1024558;28;20023;-65
2021/09/25 00:45:28;;;;;;;13.13;11.43;;;;;;;10.18;100.00;96022.34;1026788;28;20027;-65
2021/09/25 00:45:58;;;;;;;14.73;11.73;;;;;;;10.17;100.00;96017.38;1022428;29;20082;-64
2021/09/25 00:46:29;;;;;;;12.52;10.85;;;;;;;10.22;100.00;96028.66;1020176;29;20536;-64
2021/09/25 00:46:59;;;;;;;12.77;10.80;;;;;;;10.19;100.00;96031.00;1018991;29;20371;-65
2021/09/25 00:47:30;;;;;;;13.45;10.85;;;;;;;10.22;100.00;96030.50;1015474;29;20025;-64
2021/09/25 00:48:00;;;;;;;16.33;11.30;;;;;;;10.23;100.00;96037.31;1022820;29;20795;-65
2021/09/25 00:48:31;;;;;;;13.93;10.93;;;;;;;10.22;100.00;96030.50;1022968;28;20035;-65
2021/09/25 00:49:01;;;;;;;16.70;11.13;;;;;;;10.21;100.00;96028.94;1023129;29;20043;-64
2021/09/25 00:49:32;;;;;;;12.73;10.93;;;;;;;10.22;100.00;96027.88;1015484;29;20118;-65
2021/09/25 00:50:03;;;;;;;14.85;11.68;;;;;;;10.24;100.00;96028.44;1019047;29;20103;-65
2021/09/25 00:50:34;;;;;;;14.43;11.70;;;;;;;10.21;100.00;96024.47;1023214;29;20139;-64
2021/09/25 00:51:04;;;;;;;13.00;11.07;;;;;;;10.20;100.00;96024.75;1023460;28;20283;-65
2021/09/25 00:51:35;;;;;;;12.77;11.35;;;;;;;10.20;100.00;96027.34;1030353;28;20030;-65
2021/09/25 00:52:06;;;;;;;15.15;11.55;;;;;;;10.21;100.00;96028.94;1031239;28;20100;-65
2021/09/25 00:52:36;;;;;;;14.63;11.05;;;;;;;10.20;100.00;96027.34;1031436;28;20072;-65
2021/09/25 00:53:07;;;;;;;13.30;11.38;;;;;;;10.20;100.00;96027.34;1031079;28;20018;-64
2021/09/25 00:53:37;;;;;;;15.90;10.93;;;;;;;10.21;100.00;96026.31;1022830;28;20027;-64
2021/09/25 00:54:07;;;;;;;16.15;12.30;;;;;;;10.20;100.00;96033.38;1023276;29;20218;-65
2021/09/25 00:54:38;;;;;;;14.73;10.63;;;;;;;10.20;100.00;96027.34;1023105;29;20074;-65
2021/09/25 00:55:09;;;;;;;15.20;12.10;;;;;;;10.18;100.00;96029.44;1027447;28;20027;-64
2021/09/25 00:55:40;;;;;;;14.25;11.07;;;;;;;10.19;100.00;96023.13;1034871;28;20105;-64
2021/09/25 00:56:12;;;;;;;13.95;11.25;;;;;;;10.17;100.00;96027.88;1027290;28;20271;-65
2021/09/25 00:56:44;;;;;;;15.07;11.68;;;;;;;10.09;100.00;96022.03;1027512;28;20045;-64
2021/09/25 00:57:14;;;;;;;14.77;11.07;;;;;;;10.11;100.00;96024.41;1023173;28;20279;-62
2021/09/25 00:57:45;;;;;;;13.38;11.45;;;;;;;10.08;100.00;96020.44;1019034;29;20275;-63
2021/09/25 00:58:15;;;;;;;13.80;10.77;;;;;;;10.11;100.00;96025.19;1019076;29;20027;-64
2021/09/25 00:58:46;;;;;;;13.43;11.02;;;;;;;10.13;100.00;96023.13;1021247;29;20039;-65
2021/09/25 00:59:16;;;;;;;13.52;11.30;;;;;;;10.06;100.00;96012.06;1026821;28;20038;-65
2021/09/25 00:59:47;;;;;;;12.45;10.43;;;;;;;10.11;100.00;96016.53;1027449;28;20092;-65
2021/09/25 01:00:17;;;;;;;14.55;11.23;;;;;;;10.10;100.00;96026.25;1026999;28;20026;-65
2021/09/25 01:00:47;;;;;;;14.48;11.52;;;;;;;10.11;100.00;96027.81;1021686;28;20072;-65
2021/09/25 01:01:18;;;;;;;13.52;10.82;;;;;;;10.10;100.00;96021.00;1021627;29;20031;-63
2021/09/25 01:01:49;;;;;;;14.13;11.57;;;;;;;10.12;100.00;96028.59;1027013;28;20046;-65
2021/09/25 01:02:20;;;;;;;13.95;11.68;;;;;;;10.08;100.00;96025.69;1027162;28;20481;-66
2021/09/25 01:02:51;;;;;;;13.77;10.65;;;;;;;10.08;100.00;96020.44;1027225;28;20270;-65
2021/09/25 01:03:21;;;;;;;15.73;10.27;;;;;;;10.10;100.00;96021.00;1031447;28;20088;-65
2021/09/25 01:03:51;;;;;;;12.38;11.07;;;;;;;10.07;100.00;96024.13;1035133;28;20173;-65
2021/09/25 01:04:22;;;;;;;17.50;12.45;;;;;;;10.02;100.00;96013.59;1027339;28;20030;-65
2021/09/25 01:04:52;;;;;;;14.95;10.73;;;;;;;10.06;100.00;96014.69;1027339;28;20046;-65
2021/09/25 01:05:23;;;;;;;15.65;11.48;;;;;;;10.01;100.00;96014.63;1027506;28;20033;-65
2021/09/25 01:05:54;;;;;;;13.10;10.32;;;;;;;10.06;100.00;96019.94;1026847;28;20042;-62
2021/09/25 01:06:24;;;;;;;13.40;11.75;;;;;;;10.05;100.00;96015.69;1019402;29;20035;-65
2021/09/25 01:06:54;;;;;;;14.25;11.27;;;;;;;10.02;100.00;96018.81;1023140;29;20147;-64
2021/09/25 01:07:25;;;;;;;13.32;10.73;;;;;;;10.02;100.00;96021.44;1020271;28;20028;-65
2021/09/25 01:07:56;;;;;;;12.70;10.73;;;;;;;10.04;100.00;96016.75;1031050;28;20030;-64
2021/09/25 01:08:27;;;;;;;15.50;11.77;;;;;;;10.02;100.00;96021.44;1027180;28;20556;-63
2021/09/25 01:08:57;;;;;;;16.50;11.55;;;;;;;10.02;100.00;96016.22;1027026;28;20262;-64
2021/09/25 01:09:28;;;;;;;18.40;11.00;;;;;;;10.04;100.00;96014.13;1019868;29;20082;-65
2021/09/25 01:09:58;;;;;;;16.70;11.88;;;;;;;10.00;100.00;96007.81;1015652;29;20060;-65
2021/09/25 01:10:29;;;;;;;17.63;11.60;;;;;;;10.02;100.00;96021.44;1015717;29;20036;-64
2021/09/25 01:10:59;;;;;;;14.00;11.13;;;;;;;10.02;100.00;96020.66;1018856;29;20024;-65
2021/09/25 01:11:30;;;;;;;15.75;11.38;;;;;;;10.01;100.00;96013.84;1022521;29;20023;-65
2021/09/25 01:12:01;;;;;;;14.98;11.68;;;;;;;10.02;100.00;96008.34;1023038;28;20023;-65
2021/09/25 01:12:31;;;;;;;16.92;12.18;;;;;;;10.00;100.00;96007.81;1023754;28;20507;-65
2021/09/25 01:13:02;;;;;;;13.38;11.18;;;;;;;10.06;100.00;96014.69;1027105;28;20874;-65
2021/09/25 01:13:32;;;;;;;18.48;11.68;;;;;;;10.06;100.00;96022.53;1023147;29;20460;-65
2021/09/25 01:14:03;;;;;;;15.50;11.43;;;;;;;10.01;100.00;96013.84;1022464;28;20504;-65
2021/09/25 01:14:34;;;;;;;15.55;11.55;;;;;;;10.05;100.00;96023.56;1023008;28;20571;-66
2021/09/25 01:15:05;;;;;;;15.95;11.88;;;;;;;9.99;100.00;96013.31;1027342;28;20023;-65
2021/09/25 01:15:35;;;;;;;13.73;11.70;;;;;;;9.87;100.00;95995.94;1019394;29;20297;-65
2021/09/25 01:16:06;;;;;;;13.65;12.10;;;;;;;10.07;100.00;96018.09;1017890;29;20051;-64
2021/09/25 01:16:36;;;;;;;15.25;12.20;;;;;;;10.09;100.00;96016.00;1016613;29;20028;-65
2021/09/25 01:17:09;;;;;;;18.33;10.82;;;;;;;10.11;100.00;96016.53;1015561;29;20834;-63
2021/09/25 01:17:39;;;;;;;13.02;11.30;;;;;;;10.06;100.00;96014.69;1022091;28;20034;-65
2021/09/25 01:18:10;;;;;;;15.07;12.02;;;;;;;10.11;100.00;96019.94;1031097;28;20284;-65
2021/09/25 01:18:40;;;;;;;12.70;11.20;;;;;;;10.11;100.00;96019.94;1027117;28;20027;-66
2021/09/25 01:19:11;;;;;;;15.77;11.45;;;;;;;10.10;100.00;96015.75;1025005;28;20023;-65
2021/09/25 01:19:42;;;;;;;15.85;11.90;;;;;;;10.07;100.00;96010.22;1027120;28;20022;-66
2021/09/25 01:20:12;;;;;;;15.73;11.40;;;;;;;10.08;100.00;96007.34;1023331;28;20095;-65
2021/09/25 01:20:43;;;;;;;14.65;10.65;;;;;;;10.10;100.00;96015.75;1026994;28;20027;-65
2021/09/25 01:21:13;;;;;;;14.18;11.90;;;;;;;10.07;100.00;96015.47;1022545;29;20027;-65
2021/09/25 01:21:44;;;;;;;15.20;11.88;;;;;;;10.05;100.00;96010.47;1026945;28;20027;-66
2021/09/25 01:22:14;;;;;;;14.10;11.48;;;;;;;10.12;100.00;96016.28;1027161;28;20034;-65
2021/09/25 01:22:45;;;;;;;18.65;12.30;;;;;;;10.11;100.00;96019.94;1033615;28;20022;-65
2021/09/25 01:23:15;;;;;;;13.50;11.52;;;;;;;10.08;100.00;96020.44;1031174;28;20038;-65
2021/09/25 01:23:46;;;;;;;14.80;11.75;;;;;;;10.02;100.00;96005.72;1023439;28;20496;-65
2021/09/25 01:24:16;;;;;;;15.27;12.35;;;;;;;10.11;100.00;96014.69;1026997;28;20448;-64
2021/09/25 01:24:47;;;;;;;14.30;11.93;;;;;;;10.17;100.00;96020.00;1023154;28;20046;-65
2021/09/25 01:25:17;;;;;;;15.02;11.77;;;;;;;10.15;100.00;96015.78;1023046;28;20034;-65
2021/09/25 01:25:47;;;;;;;15.80;11.85;;;;;;;9.99;100.00;95998.34;1023262;28;20035;-64
2021/09/25 01:26:20;;;;;;;13.45;11.45;;;;;;;10.14;100.00;96023.91;1026979;28;20085;-66
2021/09/25 01:26:50;;;;;;;18.55;11.55;;;;;;;10.15;100.00;96020.22;1031113;28;20096;-65
2021/09/25 01:27:21;;;;;;;15.43;11.60;;;;;;;10.17;100.00;96014.75;1027123;28;20333;-65
2021/09/25 01:27:51;;;;;;;13.55;10.82;;;;;;;10.18;100.00;96018.94;1026657;28;20047;-63
2021/09/25 01:28:21;;;;;;;14.82;11.55;;;;;;;10.21;100.00;96019.22;1022130;29;20113;-64
2021/09/25 01:28:53;;;;;;;15.23;11.68;;;;;;;10.19;100.00;96016.06;1019152;28;20034;-66
2021/09/25 01:29:25;;;;;;;14.15;11.98;;;;;;;10.18;100.00;96021.56;1023372;28;20031;-65
2021/09/25 01:29:55;;;;;;;15.25;11.65;;;;;;;10.19;100.00;96015.28;1022781;28;20278;-64
2021/09/25 01:30:26;;;;;;;14.30;11.73;;;;;;;10.19;100.00;96016.06;1022560;28;20275;-65
2021/09/25 01:30:56;;;;;;;16.98;12.25;;;;;;;10.20;100.00;96022.91;1026150;28;20031;-66
2021/09/25 01:31:27;;;;;;;13.85;11.80;;;;;;;10.21;100.00;96019.22;1025851;28;20114;-64
2021/09/25 01:31:57;;;;;;;14.65;12.10;;;;;;;10.20;100.00;96016.88;1026942;28;20394;-64
2021/09/25 01:32:28;;;;;;;13.55;11.15;;;;;;;10.12;100.00;96008.41;1033506;28;20030;-65
2021/09/25 01:33:00;;;;;;;16.40;12.23;;;;;;;10.18;100.00;96018.94;1027834;28;20027;-65
2021/09/25 01:33:33;;;;;;;19.30;12.25;;;;;;;10.18;100.00;96018.94;1027477;28;20035;-65
2021/09/25 01:34:04;;;;;;;13.30;11.63;;;;;;;10.15;100.00;96018.38;1026503;28;20396;-65
2021/09/25 01:34:35;;;;;;;15.15;12.00;;;;;;;10.17;100.00;96022.63;1020619;28;20294;-64
2021/09/25 01:35:05;;;;;;;14.77;11.63;;;;;;;10.15;100.00;96010.53;1022994;29;20436;-65
2021/09/25 01:35:36;;;;;;;15.20;12.13;;;;;;;10.09;100.00;96006.31;1019017;29;20095;-65
2021/09/25 01:36:06;;;;;;;14.32;11.48;;;;;;;10.12;100.00;96015.50;1019564;28;20363;-65
2021/09/25 01:36:37;;;;;;;17.02;11.90;;;;;;;10.10;100.00;96007.09;1026912;28;20398;-65
2021/09/25 01:37:08;;;;;;;14.63;11.82;;;;;;;10.12;100.00;96011.03;1026979;28;20752;-63
2021/09/25 01:37:38;;;;;;;19.13;12.63;;;;;;;10.14;100.00;96008.16;1019237;29;20311;-65
2021/09/25 01:38:09;;;;;;;14.52;11.90;;;;;;;10.12;100.00;96011.03;1022782;28;20023;-65
2021/09/25 01:38:39;;;;;;;15.77;11.88;;;;;;;10.08;100.00;96004.72;1022513;28;20027;-64
2021/09/25 01:39:10;;;;;;;16.50;12.40;;;;;;;10.08;100.00;96006.56;1021318;28;20023;-65
2021/09/25 01:39:40;;;;;;;14.70;11.43;;;;;;;10.10;100.00;96015.75;1022715;28;20043;-64
2021/09/25 01:40:11;;;;;;;14.80;11.68;;;;;;;10.11;100.00;96013.91;1024554;28;20023;-65
2021/09/25 01:40:42;;;;;;;15.73;11.98;;;;;;;10.11;100.00;96012.06;1019062;28;20043;-65
2021/09/25 01:41:13;;;;;;;13.88;11.90;;;;;;;10.14;100.00;96013.41;1023193;28;20437;-63
2021/09/25 01:41:43;;;;;;;14.15;11.40;;;;;;;10.12;100.00;96016.28;1031036;28;20030;-64
2021/09/25 01:42:14;;;;;;;14.77;11.88;;;;;;;10.13;100.00;96019.72;1034902;28;20268;-62
2021/09/25 01:42:45;;;;;;;14.63;11.60;;;;;;;10.09;100.00;96011.56;1034993;28;20030;-65
2021/09/25 01:43:15;;;;;;;15.15;11.82;;;;;;;10.10;100.00;96007.88;1031010;28;20077;-64
2021/09/25 01:43:46;;;;;;;14.27;11.55;;;;;;;10.05;100.00;96005.22;1030752;28;20034;-64
2021/09/25 01:44:16;;;;;;;14.10;11.50;;;;;;;10.04;100.00;96003.66;1024688;28;20057;-64
2021/09/25 01:44:48;;;;;;;15.07;11.93;;;;;;;10.10;100.00;96013.13;1024274;28;20041;-63
2021/09/25 01:45:19;;;;;;;14.52;11.60;;;;;;;10.13;100.00;96010.00;1030589;28;20026;-65
2021/09/25 01:45:49;;;;;;;14.88;11.20;;;;;;;10.13;100.00;96010.00;1030733;28;20281;-64
2021/09/25 01:46:20;;;;;;;14.15;11.73;;;;;;;10.14;100.00;96011.56;1029581;28;20023;-63
2021/09/25 01:46:50;;;;;;;16.83;12.35;;;;;;;10.13;100.00;96010.00;1027046;28;20026;-65
2021/09/25 01:47:21;;;;;;;14.35;12.18;;;;;;;10.19;100.00;96008.19;1033001;28;20026;-64
2021/09/25 01:47:51;;;;;;;16.10;12.10;;;;;;;10.18;100.00;96019.72;1034780;28;20034;-65
2021/09/25 01:48:22;;;;;;;14.88;12.65;;;;;;;10.09;100.00;96003.69;1034605;28;20717;-65
2021/09/25 01:48:52;;;;;;;14.05;12.20;;;;;;;10.08;100.00;96004.72;1025729;28;20029;-65
2021/09/25 01:49:23;;;;;;;13.38;11.98;;;;;;;10.14;100.00;96014.19;1026586;28;20592;-65
2021/09/25 01:49:53;;;;;;;18.20;13.05;;;;;;;10.12;100.00;96011.03;1029103;28;20054;-64
2021/09/25 01:50:24;;;;;;;14.90;12.02;;;;;;;10.16;100.00;96019.22;1030851;28;20029;-65
2021/09/25 01:50:54;;;;;;;15.32;12.60;;;;;;;10.18;100.00;96017.09;1034501;28;20068;-63
2021/09/25 01:51:25;;;;;;;16.00;12.27;;;;;;;10.14;100.00;96016.81;1028791;28;20033;-63
2021/09/25 01:51:55;;;;;;;15.27;12.32;;;;;;;10.15;100.00;96014.97;1022580;28;20449;-64
2021/09/25 01:52:26;;;;;;;14.38;12.00;;;;;;;10.17;100.00;96022.63;1032930;28;20106;-65
2021/09/25 01:52:56;;;;;;;14.80;11.90;;;;;;;10.17;100.00;96018.16;1026682;28;20023;-65
2021/09/25 01:53:27;;;;;;;13.57;12.13;;;;;;;10.20;100.00;96022.13;1027113;28;20027;-64
2021/09/25 01:53:57;;;;;;;17.23;12.50;;;;;;;10.20;100.00;96024.75;1028786;28;20035;-65
2021/09/25 01:54:28;;;;;;;13.38;11.45;;;;;;;10.18;100.00;96018.94;1030844;28;20113;-64
2021/09/25 01:54:58;;;;;;;16.85;12.10;;;;;;;10.15;100.00;96018.38;1034763;28;20514;-64
2021/09/25 01:55:29;;;;;;;16.05;12.45;;;;;;;10.15;100.00;96018.38;1037186;28;20092;-65
2021/09/25 01:56:08;;;;;;;15.90;12.15;;;;;;;10.17;100.00;96017.38;1037868;28;20025;-65
2021/09/25 01:56:42;;;;;;;14.98;11.55;;;;;;;10.18;100.00;96017.09;1030782;28;20026;-65
2021/09/25 01:57:13;;;;;;;13.40;11.77;;;;;;;10.20;100.00;96016.88;1030098;28;20273;-65
2021/09/25 01:57:43;;;;;;;16.17;12.07;;;;;;;10.19;100.00;96017.88;1030366;28;20273;-64
2021/09/25 01:58:13;;;;;;;13.35;11.10;;;;;;;10.19;100.00;96013.44;1020279;28;20429;-64
2021/09/25 01:58:44;;;;;;;14.00;11.73;;;;;;;10.24;100.00;96017.94;1022477;28;20097;-64
2021/09/25 01:59:14;;;;;;;15.52;11.85;;;;;;;10.24;100.00;96012.69;1022338;29;20023;-63
2021/09/25 01:59:45;;;;;;;14.35;11.90;;;;;;;10.22;100.00;96012.94;1022774;28;20027;-64
2021/09/25 02:00:16;;;;;;;14.45;11.65;;;;;;;10.22;100.00;96014.75;1030640;28;20110;-64
2021/09/25 02:00:46;;;;;;;18.77;12.93;;;;;;;10.21;100.00;96015.81;1030346;28;20133;-65
2021/09/25 02:01:16;;;;;;;14.98;11.80;;;;;;;10.21;100.00;96008.72;1027039;28;20700;-64
2021/09/25 02:01:48;;;;;;;15.52;11.70;;;;;;;10.15;100.00;96013.16;1025863;28;20045;-64
2021/09/25 02:02:18;;;;;;;15.23;12.95;;;;;;;10.18;100.00;96011.06;1022188;28;20019;-64
2021/09/25 02:02:49;;;;;;;16.35;11.85;;;;;;;10.11;100.00;95998.19;1022691;29;20279;-65
2021/09/25 02:03:20;;;;;;;13.75;11.38;;;;;;;10.18;100.00;96013.69;1022670;29;20023;-64
2021/09/25 02:03:50;;;;;;;17.08;12.73;;;;;;;10.21;100.00;96007.94;1016549;29;20773;-65
2021/09/25 02:04:20;;;;;;;14.60;12.02;;;;;;;10.22;100.00;96012.13;1018531;28;20457;-64
2021/09/25 02:04:51;;;;;;;15.38;12.48;;;;;;;10.24;100.00;96013.47;1019037;28;20028;-65
2021/09/25 02:05:22;;;;;;;15.15;11.70;;;;;;;10.25;100.00;96011.63;1018941;29;20034;-66
2021/09/25 02:05:52;;;;;;;16.05;12.18;;;;;;;10.25;100.00;96014.25;1024644;28;20031;-65
2021/09/25 02:06:22;;;;;;;17.08;12.32;;;;;;;10.23;100.00;96016.34;1027088;28;20023;-65
2021/09/25 02:06:53;;;;;;;17.13;11.77;;;;;;;10.23;100.00;96016.34;1026825;28;20037;-65
2021/09/25 02:07:23;;;;;;;14.25;11.65;;;;;;;10.19;100.00;96005.56;1029349;28;20089;-65
2021/09/25 02:07:54;;;;;;;18.13;12.63;;;;;;;10.18;100.00;96009.25;1026893;28;20085;-63
2021/09/25 02:08:24;;;;;;;15.45;11.25;;;;;;;10.20;100.00;96011.63;1030801;28;20026;-65
2021/09/25 02:08:56;;;;;;;13.55;11.30;;;;;;;10.17;100.00;96006.88;1030533;28;20030;-64
2021/09/25 02:09:27;;;;;;;14.95;11.68;;;;;;;10.15;100.00;96010.53;1030547;28;20615;-64
2021/09/25 02:09:57;;;;;;;13.02;11.60;;;;;;;10.15;100.00;96000.03;1034380;28;20280;-64
2021/09/25 02:10:28;;;;;;;16.75;11.18;;;;;;;10.15;100.00;96015.78;1031176;28;20446;-65
2021/09/25 02:10:58;;;;;;;15.80;12.27;;;;;;;10.13;100.00;96002.13;1030803;28;20034;-64
2021/09/25 02:11:29;;;;;;;14.60;11.40;;;;;;;10.20;100.00;96003.75;1029155;28;20150;-64
2021/09/25 02:11:59;;;;;;;15.77;11.77;;;;;;;10.18;100.00;96005.84;1026907;28;20030;-64
2021/09/25 02:12:30;;;;;;;15.18;11.38;;;;;;;10.14;100.00;95998.47;1026614;28;20382;-65
2021/09/25 02:13:00;;;;;;;17.35;12.25;;;;;;;10.17;100.00;96009.50;1022915;29;20050;-65
2021/09/25 02:13:31;;;;;;;13.77;11.57;;;;;;;10.19;100.00;96010.03;1018492;29;20115;-65
2021/09/25 02:14:01;;;;;;;16.38;11.95;;;;;;;10.18;100.00;96008.44;1022127;28;20034;-64
2021/09/25 02:14:32;;;;;;;14.57;11.93;;;;;;;10.17;100.00;96007.66;1022852;28;20034;-65
2021/09/25 02:15:03;;;;;;;14.13;11.75;;;;;;;10.17;100.00;96004.25;1030579;28;20033;-64
2021/09/25 02:15:34;;;;;;;14.57;11.80;;;;;;;10.13;100.00;95996.13;1026395;28;20085;-63
2021/09/25 02:16:05;;;;;;;15.82;12.00;;;;;;;10.15;100.00;96001.88;1026992;28;20811;-64
2021/09/25 02:16:35;;;;;;;15.60;12.10;;;;;;;10.20;100.00;96009.00;1029501;28;20360;-64
2021/09/25 02:17:06;;;;;;;16.38;11.85;;;;;;;10.13;100.00;96001.34;1023338;28;20058;-64
2021/09/25 02:17:36;;;;;;;13.50;11.20;;;;;;;10.14;100.00;96003.72;1016549;29;20056;-64
2021/09/25 02:18:07;;;;;;;15.88;12.15;;;;;;;10.18;100.00;96008.44;1022779;29;20094;-66
2021/09/25 02:18:37;;;;;;;14.45;11.55;;;;;;;10.11;100.00;96003.44;1023165;29;20474;-65
2021/09/25 02:19:08;;;;;;;15.75;12.00;;;;;;;10.18;100.00;96008.44;1024267;28;20015;-64
2021/09/25 02:19:38;;;;;;;14.95;11.80;;;;;;;10.17;100.00;96002.41;1030770;28;20086;-64